Terminal Aerodrome Forecast
Issued by NWS Sioux Falls, SD

Home | Current Version | Previous Version | Text Only | Print | Product List | Glossary Off
Versions: 1 2 3 4 5 6 7 8 9 10 11 12

000
FTUS43 KFSD 231141
TAFHON
TAF
KHON 231141Z 2312/2412 17013G20KT P6SM FEW250
     FM232300 20013KT P6SM SCT060 BKN200 PROB30 2323/2401 5SM TSRA
      OVC040CB
     FM240100 30008KT P6SM BKN100
     FM240300 34007KT P6SM BKN150=

USA.gov is the U.S. government's official web portal to all federal, state and local government web resources and services.